Time;durP1;ratioP1;P1;durP2;ratioP2;P2;SDS_P1;SDS_P2;PMS_P1;PMS_P2;Temp;Humidity;BMP_temperature;BMP_pressure;BME280_temperature;BME280_humidity;BME280_pressure;Samples;Min_cycle;Max_cycle;Signal;HPM_P1;HPM_P2
2023/02/09 00:01:38;;;;;;;61.67;25.75;;;-2.10;59.10;;;-7.52;100.00;96875.44;5012281;28;20071;-45
2023/02/09 00:04:04;;;;;;;70.38;27.20;;;-2.10;59.10;;;-7.56;100.00;96875.78;5009981;28;20488;-47
2023/02/09 00:06:30;;;;;;;65.35;25.23;;;-2.10;59.20;;;-7.57;100.00;96871.56;5007546;28;20384;-48
2023/02/09 00:09:01;;;;;;;71.38;26.55;;;-2.10;59.20;;;-7.54;100.00;96882.50;5008639;28;20090;-45
2023/02/09 00:14:19;;;;;;;70.55;27.85;;;-2.10;59.30;;;-7.54;100.00;96866.97;5000509;28;20040;-48
2023/02/09 00:16:46;;;;;;;60.95;26.08;;;-2.20;59.30;;;-7.54;100.00;96866.97;5000839;28;20164;-45
2023/02/09 00:19:19;;;;;;;64.45;26.15;;;-2.20;59.40;;;-7.53;100.00;96865.19;4994291;28;20017;-45
2023/02/09 00:21:45;;;;;;;;;;;-2.20;59.50;;;-7.56;100.00;96861.09;5020767;28;20498;-46
2023/02/09 00:24:13;;;;;;;65.88;23.58;;;-2.10;59.30;;;-7.59;100.00;96865.69;5026639;28;19992;-46
2023/02/09 00:26:41;;;;;;;62.67;26.42;;;-2.20;59.20;;;-7.61;100.00;96863.22;5009318;28;20021;-50
2023/02/09 00:29:20;;;;;;;65.78;26.63;;;-2.20;59.30;;;-7.63;100.00;96861.69;5013992;28;20510;-44
2023/02/09 00:31:46;;;;;;;60.88;25.35;;;-2.20;59.40;;;-7.65;100.00;96868.75;4992125;28;20324;-44
2023/02/09 00:34:12;;;;;;;62.75;24.17;;;-2.20;59.40;;;-7.72;100.00;96871.81;5002960;28;20082;-54
2023/02/09 00:36:37;;;;;;;66.53;26.20;;;-2.30;59.40;;;-7.72;100.00;96868.41;5012634;28;20045;-46
2023/02/09 00:39:03;;;;;;;65.57;26.35;;;-2.30;59.50;;;-7.73;100.00;96866.78;5015680;28;20120;-46
2023/02/09 00:44:17;;;;;;;72.82;28.20;;;-2.30;59.60;;;-7.81;100.00;96869.94;5011486;28;20094;-45
2023/02/09 00:46:43;;;;;;;68.63;26.98;;;-2.30;59.60;;;-7.82;100.00;96864.91;4989159;28;20029;-52
2023/02/09 00:49:09;;;;;;;76.07;28.20;;;-2.40;59.60;;;-7.84;100.00;96866.78;5005141;28;20029;-48
2023/02/09 00:51:41;;;;;;;64.65;26.38;;;-2.30;59.70;;;-7.86;100.00;96869.50;4994634;28;20498;-43
2023/02/09 00:54:10;;;;;;;69.78;26.17;;;-2.40;59.80;;;-7.88;100.00;96861.03;5011335;28;20573;-45
2023/02/09 00:56:36;;;;;;;62.55;24.20;;;-2.40;59.80;;;-7.91;100.00;96858.66;5009527;28;20067;-44
2023/02/09 00:59:02;;;;;;;69.32;26.98;;;-2.40;59.70;;;-7.92;100.00;96852.69;5005565;28;20388;-46
2023/02/09 01:01:28;;;;;;;75.78;27.80;;;-2.40;59.80;;;-7.95;100.00;96854.69;4999595;28;20052;-46
2023/02/09 01:03:55;;;;;;;72.90;29.10;;;-2.40;59.70;;;-7.99;100.00;96851.53;5009184;28;20033;-49
2023/02/09 01:06:21;;;;;;;74.13;29.48;;;-2.40;59.80;;;-8.00;100.00;96856.78;5009185;28;20021;-44
2023/02/09 01:08:47;;;;;;;84.75;30.08;;;-2.50;59.80;;;-7.99;100.00;96861.00;5025271;28;20132;-52
2023/02/09 01:11:17;;;;;;;77.35;29.30;;;-2.50;59.90;;;-7.99;100.00;96863.59;4992896;28;20028;-47
2023/02/09 01:13:45;;;;;;;81.85;29.48;;;-2.50;60.00;;;-8.01;100.00;96863.75;4991920;28;20542;-44
2023/02/09 01:16:17;;;;;;;68.28;26.95;;;-2.50;60.00;;;-8.03;100.00;96864.78;5008130;28;20086;-49
2023/02/09 01:18:43;;;;;;;70.18;27.85;;;-2.50;60.00;;;-8.07;100.00;96860.81;5010746;28;20127;-45
2023/02/09 01:21:20;;;;;;;73.22;26.67;;;-2.50;59.90;;;-8.10;100.00;96858.44;4991748;28;20033;-46
2023/02/09 01:23:48;;;;;;;67.70;25.83;;;-2.50;60.00;;;-8.13;100.00;96854.34;5006249;28;20026;-44
2023/02/09 01:26:19;;;;;;;64.93;27.55;;;-2.50;60.00;;;-8.15;100.00;96853.63;4989289;28;20102;-45
2023/02/09 01:28:52;;;;;;;80.35;28.85;;;-2.60;60.00;;;-8.19;100.00;96858.19;5008219;28;20598;-46
2023/02/09 01:31:36;;;;;;;69.22;26.02;;;-2.60;60.00;;;-8.14;100.00;96860.44;5008436;28;20115;-46
2023/02/09 01:34:05;;;;;;;73.72;27.17;;;-2.60;60.10;;;-8.13;100.00;96848.34;5008515;28;20294;-47
2023/02/09 01:36:33;;;;;;;74.85;27.80;;;-2.60;60.00;;;-8.13;100.00;96851.75;5008855;28;20056;-46
2023/02/09 01:39:02;;;;;;;82.50;30.40;;;-2.60;60.10;;;-8.12;100.00;96848.22;4990335;28;20026;-44
2023/02/09 01:41:33;;;;;;;71.82;28.75;;;-2.70;60.20;;;-8.07;100.00;96845.28;4990038;28;20029;-47
2023/02/09 01:44:29;;;;;;;75.50;27.63;;;-2.60;60.40;;;-8.08;100.00;96849.63;5005760;28;20066;-45
2023/02/09 01:46:58;;;;;;;64.53;25.92;;;-2.60;60.40;;;-8.13;100.00;96854.34;5006770;28;20025;-49
2023/02/09 01:49:27;;;;;;;69.50;27.02;;;-2.60;60.20;;;-8.18;100.00;96844.34;5005747;28;20121;-45
2023/02/09 01:52:08;;;;;;;72.50;28.73;;;-2.70;60.20;;;-8.14;100.00;96847.53;5001313;28;20032;-47
2023/02/09 01:55:05;;;;;;;68.95;26.27;;;-2.70;60.30;;;-8.12;100.00;96840.44;4996991;28;20087;-48
2023/02/09 01:57:48;;;;;;;73.82;28.60;;;-2.70;60.40;;;-8.10;100.00;96837.75;5008285;28;20500;-46
2023/02/09 02:00:18;;;;;;;71.03;26.38;;;-2.70;60.40;;;-8.11;100.00;96834.34;5022025;28;20033;-52
2023/02/09 02:02:56;;;;;;;80.75;29.83;;;-2.70;60.30;;;-8.13;100.00;96832.81;5008837;28;20029;-49
2023/02/09 02:05:28;;;;;;;73.03;27.75;;;-2.70;60.50;;;-8.09;100.00;96836.81;5020542;28;20021;-43
2023/02/09 02:08:29;;;;;;;68.32;28.45;;;-2.70;60.60;;;-8.06;100.00;96829.63;5008910;28;20017;-49
2023/02/09 02:10:57;;;;;;;72.28;27.85;;;-2.70;60.70;;;-8.04;100.00;96835.53;5009074;28;20094;-50
2023/02/09 02:13:22;;;;;;;64.35;26.63;;;-2.70;60.70;;;-8.03;100.00;96838.94;5009935;28;20416;-45
2023/02/09 02:16:33;;;;;;;66.97;26.13;;;-2.70;60.70;;;-8.08;100.00;96835.88;5007320;28;20065;-46
2023/02/09 02:19:55;;;;;;;70.13;26.92;;;-2.70;60.80;;;-8.09;100.00;96839.41;4937223;28;20587;-45
2023/02/09 02:22:57;;;;;;;65.47;25.35;;;-2.70;60.80;;;-8.13;100.00;96838.00;4994001;28;20026;-44
2023/02/09 02:26:00;;;;;;;63.08;24.80;;;-2.70;60.70;;;-8.19;100.00;96839.28;4993373;28;20025;-46
2023/02/09 02:29:37;;;;;;;73.35;26.73;;;-2.80;60.70;;;-8.19;100.00;96832.34;5021242;28;20052;-45
2023/02/09 02:33:35;;;;;;;61.75;25.52;;;-2.80;60.70;;;-8.21;100.00;96833.41;5003276;23;20049;-49
2023/02/09 02:36:59;;;;;;;69.43;27.90;;;-2.80;60.80;;;-8.24;100.00;96831.91;4961778;28;20034;-51
2023/02/09 02:40:10;;;;;;;;;;;-2.90;60.70;;;-8.28;100.00;96825.28;4985469;28;20456;-50
2023/02/09 02:42:53;;;;;;;70.32;25.83;;;-2.80;60.60;;;-8.30;100.00;96834.09;4965187;28;19912;-48
2023/02/09 02:45:59;;;;;;;71.63;26.77;;;-2.90;60.70;;;-8.34;100.00;96822.34;4994515;28;20026;-49
2023/02/09 02:48:59;;;;;;;82.03;29.02;;;-2.90;60.70;;;-8.35;100.00;96826.72;4980473;28;20556;-47
2023/02/09 02:51:54;;;;;;;75.05;27.40;;;-2.90;60.80;;;-8.31;100.00;96819.53;4989569;28;20400;-49
2023/02/09 02:54:40;;;;;;;76.10;29.15;;;-2.90;60.90;;;-8.28;100.00;96811.56;4975469;28;20052;-50
2023/02/09 02:57:20;;;;;;;75.60;26.30;;;-2.90;61.00;;;-8.27;100.00;96810.59;4991464;28;20052;-49
2023/02/09 03:00:09;;;;;;;76.47;29.45;;;-2.90;61.10;;;-8.27;100.00;96815.78;4976820;28;20083;-48
2023/02/09 03:02:48;;;;;;;74.57;28.25;;;-2.90;61.10;;;-8.25;100.00;96817.31;4998840;28;20053;-49
2023/02/09 03:05:17;;;;;;;73.03;27.95;;;-2.90;61.10;;;-8.20;100.00;96824.72;5005644;28;20428;-49
2023/02/09 03:07:47;;;;;;;63.42;26.77;;;-2.90;61.10;;;-8.20;100.00;96822.94;4992954;28;20026;-52
2023/02/09 03:10:36;;;;;;;75.00;27.60;;;-2.90;61.10;;;-8.23;100.00;96820.59;4993631;28;20434;-51
2023/02/09 03:14:00;;;;;;;71.55;27.15;;;-2.90;61.20;;;-8.21;100.00;96825.66;5001180;28;20380;-49
2023/02/09 03:16:56;;;;;;;71.50;26.10;;;-2.90;61.20;;;-8.22;100.00;96830.00;4971008;28;20483;-51
2023/02/09 03:19:56;;;;;;;64.32;26.48;;;-2.90;61.20;;;-8.21;100.00;96826.50;4984288;28;20024;-52
2023/02/09 03:22:39;;;;;;;64.13;25.83;;;-2.90;61.20;;;-8.22;100.00;96827.41;4988070;28;20083;-48
2023/02/09 03:25:36;;;;;;;68.75;26.50;;;-2.90;61.20;;;-8.24;100.00;96828.47;4979422;28;20037;-50
2023/02/09 03:28:22;;;;;;;69.30;27.02;;;-2.90;61.30;;;-8.23;100.00;96827.53;4991785;28;20030;-50
2023/02/09 03:30:56;;;;;;;64.30;25.40;;;-2.90;61.30;;;-8.24;100.00;96828.47;4988496;28;20109;-53
2023/02/09 03:33:31;;;;;;;74.63;27.85;;;-2.90;61.20;;;-8.23;100.00;96825.78;4985298;28;20499;-49
2023/02/09 03:36:06;;;;;;;70.13;26.63;;;-2.90;61.30;;;-8.24;100.00;96828.47;4991302;28;20715;-49
2023/02/09 03:38:31;;;;;;;68.43;24.90;;;-2.90;61.30;;;-8.25;100.00;96832.81;5023805;28;20017;-53
2023/02/09 03:40:57;;;;;;;75.97;27.42;;;-2.80;61.40;;;-8.27;100.00;96837.31;4991494;28;20022;-52
2023/02/09 03:44:25;;;;;;;61.15;25.33;;;-2.90;61.30;;;-8.28;100.00;96830.47;5002219;28;20025;-49
2023/02/09 03:46:09;;;;;;;63.72;25.70;;;-2.90;61.30;;;-8.29;100.00;96828.81;4992441;28;20091;-49
2023/02/09 03:48:35;;;;;;;69.43;26.02;;;-2.90;61.30;;;-8.28;100.00;96824.47;5003178;28;20033;-50
2023/02/09 03:51:07;;;;;;;64.28;26.00;;;-2.90;61.30;;;-8.30;100.00;96829.78;4989743;28;20029;-48
2023/02/09 03:53:41;;;;;;;57.42;25.63;;;-2.90;61.40;;;-8.34;100.00;96836.09;4984266;28;20472;-47
2023/02/09 03:56:08;;;;;;;70.45;27.42;;;-2.90;61.30;;;-8.36;100.00;96832.00;4960933;28;20195;-49
2023/02/09 03:58:36;;;;;;;70.57;26.48;;;-2.90;61.30;;;-8.38;100.00;96832.16;4988083;28;20028;-50
2023/02/09 04:01:08;;;;;;;66.13;26.38;;;-2.90;61.40;;;-8.40;100.00;96826.25;4971547;28;20148;-49
2023/02/09 04:03:38;;;;;;;76.70;28.58;;;-3.00;61.40;;;-8.41;100.00;96829.78;4992095;28;20025;-54
2023/02/09 04:06:10;;;;;;;68.95;26.10;;;-3.00;61.30;;;-8.41;100.00;96822.84;4998184;28;20365;-52
2023/02/09 04:08:37;;;;;;;62.33;24.20;;;-3.00;61.40;;;-8.40;100.00;96826.25;4963844;28;20389;-50
2023/02/09 04:11:06;;;;;;;66.85;26.65;;;-3.00;61.40;;;-8.44;100.00;96827.44;4988321;28;20041;-53
2023/02/09 04:13:32;;;;;;;71.65;26.25;;;-3.00;61.40;;;-8.45;100.00;96825.81;5006244;28;20032;-49
2023/02/09 04:16:03;;;;;;;77.18;28.20;;;-3.00;61.50;;;-8.46;100.00;96832.75;4988473;28;20480;-54
2023/02/09 04:18:44;;;;;;;72.72;28.23;;;-3.00;61.50;;;-8.42;100.00;96834.16;4999862;28;20086;-48
2023/02/09 04:21:10;;;;;;;68.78;29.23;;;-3.00;61.70;;;-8.42;100.00;96835.91;4994174;28;20049;-54
2023/02/09 04:23:42;;;;;;;68.65;27.58;;;-3.00;61.60;;;-8.41;100.00;96845.31;4987922;28;20546;-52
2023/02/09 04:26:13;;;;;;;69.70;26.75;;;-3.00;61.70;;;-8.39;100.00;96846.84;4978145;28;20026;-47
2023/02/09 04:28:39;;;;;;;61.40;25.60;;;-3.00;61.70;;;-8.38;100.00;96851.03;4999068;28;20476;-50
2023/02/09 04:31:06;;;;;;;70.85;25.95;;;-3.00;61.70;;;-8.40;100.00;96847.78;4945860;28;1100890;-49
2023/02/09 04:33:31;;;;;;;65.78;25.95;;;-3.00;61.80;;;-8.42;100.00;96848.84;4990295;28;20404;-50
2023/02/09 04:36:16;;;;;;;73.75;28.85;;;-3.00;61.70;;;-8.47;100.00;96848.34;4991533;28;20037;-48
2023/02/09 04:38:45;;;;;;;70.00;27.48;;;-3.00;61.70;;;-8.48;100.00;96850.13;4990602;28;20014;-52
2023/02/09 04:41:11;;;;;;;76.80;27.95;;;-3.00;61.70;;;-8.46;100.00;96865.50;5002101;28;20037;-51
2023/02/09 04:43:37;;;;;;;77.38;27.40;;;-3.00;61.80;;;-8.46;100.00;96857.72;4973789;28;20036;-50
2023/02/09 04:46:13;;;;;;;72.13;27.30;;;-3.00;61.80;;;-8.43;100.00;96866.09;4994431;28;20041;-53
2023/02/09 04:48:39;;;;;;;68.55;27.73;;;-3.00;61.90;;;-8.44;100.00;96873.97;4986958;28;20100;-51
2023/02/09 04:51:14;;;;;;;59.28;25.02;;;-3.00;61.80;;;-8.44;100.00;96876.53;4976996;28;20043;-52
2023/02/09 04:53:40;;;;;;;71.45;28.60;;;-3.10;61.80;;;-8.47;100.00;96871.59;4991159;28;20025;-48
2023/02/09 04:56:09;;;;;;;71.43;27.17;;;-3.00;61.80;;;-8.47;100.00;96871.59;5005477;28;20036;-50
2023/02/09 05:01:24;;;;;;;63.28;25.55;;;-3.10;61.80;;;-8.54;100.00;96868.66;4988402;28;20076;-48
2023/02/09 05:03:53;;;;;;;61.50;25.08;;;-3.10;61.80;;;-8.57;100.00;96871.47;5001212;28;20381;-47
2023/02/09 05:06:27;;;;;;;75.82;27.20;;;-3.10;61.80;;;-8.60;100.00;96873.47;5000726;28;20021;-49
2023/02/09 05:08:53;;;;;;;76.38;28.35;;;-3.10;61.80;;;-8.57;100.00;96874.06;4989333;28;20026;-49
2023/02/09 05:11:19;;;;;;;65.00;26.30;;;-3.10;61.90;;;-8.52;100.00;96873.69;4990555;28;20026;-52
2023/02/09 05:13:45;;;;;;;65.70;26.80;;;-3.10;61.90;;;-8.52;100.00;96868.53;4992344;28;20030;-53
2023/02/09 05:16:16;;;;;;;57.97;26.05;;;-3.10;62.00;;;-8.51;100.00;96875.38;4992563;28;20119;-48
2023/02/09 05:18:43;;;;;;;65.45;25.98;;;-3.10;62.00;;;-8.52;100.00;96871.13;4990478;28;20033;-51
2023/02/09 05:21:13;;;;;;;55.83;23.98;;;-3.10;61.90;;;-8.52;100.00;96876.28;4990422;28;20140;-53
2023/02/09 05:23:39;;;;;;;58.45;24.58;;;-3.10;61.90;;;-8.52;100.00;96881.44;4991407;28;20488;-52
2023/02/09 05:26:31;;;;;;;63.22;26.23;;;-3.10;62.00;;;-8.51;100.00;96886.53;4990882;28;20034;-51
2023/02/09 05:29:06;;;;;;;53.63;24.55;;;-3.10;62.00;;;-8.51;100.00;96877.94;4993435;28;20033;-48
2023/02/09 05:31:34;;;;;;;60.33;24.13;;;-3.10;62.00;;;-8.53;100.00;96872.88;4996836;28;20045;-53
2023/02/09 05:34:03;;;;;;;56.40;24.67;;;-3.10;62.00;;;-8.53;100.00;96877.22;4984622;28;20499;-51
2023/02/09 05:36:29;;;;;;;58.55;25.92;;;-3.10;62.00;;;-8.50;100.00;96884.75;4995108;28;20493;-54
2023/02/09 05:38:55;;;;;;;55.92;24.00;;;-3.10;62.00;;;-8.50;100.00;96872.66;4998426;28;20032;-53
2023/02/09 05:44:08;;;;;;;58.58;24.65;;;-3.10;62.00;;;-8.51;100.00;96877.94;4990272;28;20090;-52
2023/02/09 05:46:40;;;;;;;57.47;24.90;;;-3.10;62.00;;;-8.52;100.00;96878.88;4987545;28;20029;-49
2023/02/09 05:49:06;;;;;;;54.30;24.88;;;-3.10;62.00;;;-8.53;100.00;96882.41;4989859;28;20025;-51
2023/02/09 05:51:35;;;;;;;54.47;24.08;;;-3.10;62.00;;;-8.54;100.00;96880.75;5002272;28;20033;-53
2023/02/09 05:54:04;;;;;;;52.08;23.08;;;-3.10;62.00;;;-8.53;100.00;96885.81;4989023;28;20025;-55
2023/02/09 05:56:30;;;;;;;53.33;23.38;;;-3.10;62.00;;;-8.52;100.00;96884.88;4991570;28;20481;-51
2023/02/09 05:58:55;;;;;;;62.30;24.80;;;-3.10;62.00;;;-8.53;100.00;96887.56;4983639;28;20037;-51
2023/02/09 06:01:21;;;;;;;53.08;24.02;;;-3.10;62.00;;;-8.53;100.00;96890.16;4970963;28;20116;-52
2023/02/09 06:03:56;;;;;;;58.95;24.38;;;-3.10;62.00;;;-8.54;100.00;96885.94;4985918;28;20030;-54
2023/02/09 06:06:22;;;;;;;60.92;24.83;;;-3.10;62.00;;;-8.56;100.00;96892.97;4990055;28;20022;-52
2023/02/09 06:08:47;;;;;;;56.25;24.15;;;-3.10;62.00;;;-8.56;100.00;96886.03;4989624;28;20021;-49
2023/02/09 06:11:18;;;;;;;56.00;23.02;;;-3.10;62.00;;;-8.55;100.00;96889.44;4997356;28;20032;-51
2023/02/09 06:13:46;;;;;;;55.10;23.40;;;-3.10;62.00;;;-8.55;100.00;96892.03;4991832;28;20020;-50
2023/02/09 06:16:15;;;;;;;55.05;22.52;;;-3.10;62.00;;;-8.57;100.00;96886.16;4988615;28;20026;-50
2023/02/09 06:18:44;;;;;;;56.13;24.45;;;-3.10;61.90;;;-8.60;100.00;96889.78;4988189;28;20028;-48
2023/02/09 06:21:16;;;;;;;56.80;24.52;;;-3.10;61.90;;;-8.56;100.00;96890.38;4988587;28;20036;-54
2023/02/09 06:23:42;;;;;;;57.58;23.00;;;-3.10;62.00;;;-8.54;100.00;96893.69;4989409;28;20021;-51
2023/02/09 06:26:16;;;;;;;55.75;22.90;;;-3.10;62.00;;;-8.53;100.00;96890.97;4987462;28;20045;-53
2023/02/09 06:28:43;;;;;;;52.90;24.35;;;-3.10;62.10;;;-8.51;100.00;96893.47;4965257;28;20033;-48
2023/02/09 06:31:12;;;;;;;56.95;24.30;;;-3.10;62.10;;;-8.48;100.00;96900.97;4979496;28;20142;-52
2023/02/09 06:33:41;;;;;;;60.70;24.08;;;-3.10;62.10;;;-8.49;100.00;96901.91;4981692;28;20041;-54
2023/02/09 06:36:11;;;;;;;48.13;20.67;;;-3.10;62.20;;;-8.50;100.00;96897.69;4980865;28;20037;-52
2023/02/09 06:38:37;;;;;;;53.03;23.00;;;-3.10;62.10;;;-8.55;100.00;96899.78;4989444;28;20033;-48
2023/02/09 06:41:05;;;;;;;62.72;24.95;;;-3.10;62.00;;;-8.57;100.00;96897.31;5003274;28;20029;-51
2023/02/09 06:43:34;;;;;;;71.38;25.65;;;-3.10;62.00;;;-8.54;100.00;96899.66;4952853;28;20030;-52
2023/02/09 06:46:14;;;;;;;55.13;21.52;;;-3.10;62.10;;;-8.52;100.00;96897.81;4965599;28;20034;-52
2023/02/09 06:48:40;;;;;;;67.45;25.85;;;-3.10;62.10;;;-8.42;100.00;96905.69;4931246;28;78227;-50
2023/02/09 06:51:10;;;;;;;58.17;23.90;;;-3.00;62.30;;;-8.38;100.00;96904.53;4986755;28;20511;-50
2023/02/09 06:53:38;;;;;;;48.72;21.25;;;-3.00;62.30;;;-8.32;100.00;96910.97;4987510;28;20087;-51
2023/02/09 06:56:05;;;;;;;45.50;20.85;;;-2.90;62.40;;;-8.29;100.00;96910.72;4986805;28;20695;-52
2023/02/09 06:58:32;;;;;;;57.72;20.58;;;-2.90;62.40;;;-8.17;100.00;96900.28;4968639;28;20027;-50
2023/02/09 07:01:10;;;;;;;57.15;20.27;;;-2.80;62.50;;;-8.13;100.00;96906.03;4986796;28;20384;-52
2023/02/09 07:03:37;;;;;;;92.70;23.02;;;-2.80;62.50;;;-8.15;100.00;96908.75;4990166;28;20061;-51
2023/02/09 07:06:21;;;;;;;83.43;21.77;;;-2.70;62.40;;;-8.16;100.00;96904.50;4983845;28;20029;-51
2023/02/09 07:08:49;;;;;;;87.30;22.80;;;-2.70;62.30;;;-8.04;100.00;96914.88;5003953;28;20087;-49
2023/02/09 07:11:18;;;;;;;93.93;21.50;;;-2.60;62.40;;;-7.99;100.00;96907.56;4986111;28;20471;-50
2023/02/09 07:13:46;;;;;;;61.08;20.27;;;-2.60;62.50;;;-7.95;100.00;96906.41;4970670;28;20117;-55
2023/02/09 07:16:24;;;;;;;63.53;19.20;;;-2.50;62.40;;;-7.90;100.00;96914.63;4985256;28;20488;-48
2023/02/09 07:18:53;;;;;;;42.97;18.70;;;-2.40;62.50;;;-7.78;100.00;96915.47;4986965;28;20401;-49
2023/02/09 07:21:31;;;;;;;42.08;18.27;;;-2.40;62.50;;;-7.60;100.00;96910.63;5002467;28;20025;-53
2023/02/09 07:23:57;;;;;;;49.47;19.95;;;-2.30;62.60;;;-7.47;100.00;96913.91;4973689;28;20046;-52
2023/02/09 07:26:25;;;;;;;53.92;20.58;;;-2.10;63.10;;;-7.35;100.00;96918.13;4975121;28;20057;-49
2023/02/09 07:28:51;;;;;;;57.40;20.85;;;-2.10;62.80;;;-7.29;100.00;96922.00;4983191;28;20044;-53
2023/02/09 07:31:20;;;;;;;38.72;18.52;;;-1.90;62.90;;;-7.23;100.00;96924.09;4980085;28;20949;-53
2023/02/09 07:33:52;;;;;;;48.92;20.33;;;-1.80;62.80;;;-7.12;100.00;96924.06;4987624;28;20075;-50
2023/02/09 07:36:24;;;;;;;53.55;21.27;;;-1.70;62.90;;;-7.03;100.00;96930.28;4986504;28;20029;-51
2023/02/09 07:38:53;;;;;;;42.83;18.33;;;-1.60;62.80;;;-6.92;100.00;96927.66;4988323;28;20037;-51
2023/02/09 07:41:26;;;;;;;40.28;18.15;;;-1.50;62.70;;;-6.76;100.00;96925.47;4998842;28;20022;-52
2023/02/09 07:43:55;;;;;;;42.42;19.15;;;-1.40;62.80;;;-6.62;100.00;96926.13;4990497;28;20025;-50
2023/02/09 07:46:24;;;;;;;35.53;17.77;;;-1.20;62.70;;;-6.43;100.00;96923.66;4973702;28;20033;-49
2023/02/09 07:48:50;;;;;;;37.88;17.73;;;-0.90;62.70;;;-6.18;100.00;96927.66;4990902;28;20017;-53
2023/02/09 07:51:24;;;;;;;32.92;16.52;;;-0.60;62.70;;;-5.90;100.00;96926.13;4990639;28;20721;-46
2023/02/09 07:53:55;;;;;;;39.03;18.08;;;-0.30;62.50;;;-5.67;100.00;96929.38;4991061;28;20484;-53
2023/02/09 07:56:26;;;;;;;44.55;17.58;;;0.00;62.60;;;-5.49;100.00;96926.16;4990782;28;20156;-53
2023/02/09 07:58:53;;;;;;;34.67;15.35;;;0.20;62.30;;;-5.37;100.00;96925.91;5005879;28;20022;-48
2023/02/09 08:01:24;;;;;;;30.67;15.93;;;0.40;62.20;;;-5.29;100.00;96927.06;4990403;28;20396;-51
2023/02/09 08:03:50;;;;;;;36.88;16.77;;;0.50;62.10;;;-5.12;100.00;96929.00;4997343;28;20084;-53
2023/02/09 08:06:46;;;;;;;29.15;15.52;;;0.70;62.00;;;-4.94;100.00;96936.97;4998938;28;20032;-49
2023/02/09 08:09:18;;;;;;;33.60;16.15;;;0.90;62.00;;;-4.84;100.00;96945.59;4991233;28;20526;-51
2023/02/09 08:12:01;;;;;;;32.63;16.08;;;1.00;61.80;;;-4.72;100.00;96941.09;4989839;28;20029;-48
2023/02/09 08:14:47;;;;;;;35.70;16.23;;;1.10;61.80;;;-4.57;100.00;96942.31;4995072;28;20032;-51
2023/02/09 08:17:19;;;;;;;29.50;15.48;;;1.30;61.80;;;-4.43;100.00;96954.09;4987789;28;20086;-55
2023/02/09 08:20:14;;;;;;;29.73;15.73;;;1.60;61.70;;;-4.15;100.00;96947.22;4966805;28;20200;-54
2023/02/09 08:22:50;;;;;;;36.15;15.50;;;1.90;61.70;;;-3.85;100.00;96945.38;4997583;28;20574;-50
2023/02/09 08:25:22;;;;;;;29.15;15.73;;;2.30;61.50;;;-3.62;100.00;96951.06;5000946;28;20629;-54
2023/02/09 08:27:55;;;;;;;25.73;13.50;;;2.50;61.20;;;-3.44;100.00;96958.97;4994437;28;20037;-52
2023/02/09 08:30:21;;;;;;;27.73;14.30;;;2.80;60.90;;;-3.33;100.00;96959.56;4970209;28;20646;-54
2023/02/09 08:32:47;;;;;;;30.25;15.25;;;3.10;60.60;;;-3.15;100.00;96957.03;4990740;28;20046;-54
2023/02/09 08:35:14;;;;;;;24.70;14.80;;;3.30;60.30;;;-2.92;100.00;96959.22;5012599;28;20087;-52
2023/02/09 08:37:43;;;;;;;28.25;14.40;;;3.60;60.40;;;-2.64;100.00;96962.63;4999467;28;20120;-49
2023/02/09 08:40:10;;;;;;;23.73;13.35;;;3.90;59.90;;;-2.45;99.43;96966.88;4996523;28;20025;-50
2023/02/09 08:42:38;;;;;;;27.13;13.60;;;4.20;59.70;;;-2.29;97.60;96960.97;5007846;28;20484;-52
2023/02/09 08:45:04;;;;;;;22.30;13.18;;;4.50;59.50;;;-2.04;97.86;96960.19;4990430;28;20026;-54
2023/02/09 08:47:42;;;;;;;24.55;13.20;;;4.80;59.30;;;-1.92;95.06;96966.81;5006717;28;20025;-52
2023/02/09 08:50:09;;;;;;;25.98;14.07;;;5.10;59.20;;;-1.80;93.09;96967.38;4977325;28;20042;-51
2023/02/09 08:52:38;;;;;;;25.67;13.82;;;5.30;58.90;;;-1.72;92.32;96972.69;4975714;28;20435;-57
2023/02/09 08:55:13;;;;;;;27.33;14.55;;;5.50;58.70;;;-1.59;90.43;96971.44;4992124;28;20030;-54
2023/02/09 08:57:42;;;;;;;21.63;12.65;;;5.80;58.60;;;-1.34;91.40;96973.22;4983610;28;20029;-57
2023/02/09 09:00:09;;;;;;;20.65;11.90;;;6.10;58.50;;;-1.22;89.47;96969.34;4988243;28;20526;-55
2023/02/09 09:02:38;;;;;;;21.33;11.90;;;6.30;58.20;;;-1.09;86.75;96971.53;5001803;28;20053;-54
2023/02/09 09:05:04;;;;;;;20.38;11.60;;;6.50;58.00;;;-0.89;88.94;96966.84;4978954;28;20416;-58
2023/02/09 09:07:30;;;;;;;17.65;11.13;;;6.70;57.70;;;-0.83;86.77;96973.25;4986879;28;20029;-56
2023/02/09 09:09:56;;;;;;;19.58;11.48;;;7.00;57.40;;;-0.75;86.36;96971.47;4986519;28;20080;-57
2023/02/09 09:12:22;;;;;;;18.88;11.43;;;7.10;57.30;;;-0.70;84.48;96979.66;4991296;28;20079;-55
2023/02/09 09:14:47;;;;;;;28.13;11.00;;;7.30;56.70;;;-0.57;84.60;96963.47;4990985;28;20105;-55
2023/02/09 09:17:13;;;;;;;19.75;11.60;;;7.50;56.40;;;-0.33;84.53;96972.38;4984523;28;20395;-53
2023/02/09 09:19:39;;;;;;;20.70;11.27;;;7.70;56.20;;;-0.08;83.67;96975.81;4990839;28;20033;-58
2023/02/09 09:22:08;;;;;;;17.92;11.30;;;7.90;55.90;;;0.12;81.94;96978.91;4988483;28;20128;-54
2023/02/09 09:24:40;;;;;;;20.30;11.18;;;8.10;55.60;;;0.29;79.52;96974.50;4991166;28;20520;-58
2023/02/09 09:27:09;;;;;;;19.67;12.03;;;8.20;55.10;;;0.52;79.42;96967.56;4993404;28;20472;-55
2023/02/09 09:29:39;;;;;;;18.77;12.15;;;8.50;55.50;;;0.63;76.85;96963.78;4989612;28;20025;-58
2023/02/09 09:32:12;;;;;;;22.38;12.45;;;8.70;54.60;;;0.69;75.34;96968.34;4987804;28;20075;-58
2023/02/09 09:34:40;;;;;;;22.30;11.75;;;8.80;54.30;;;0.93;73.50;96970.88;4988547;28;20387;-57
2023/02/09 09:37:06;;;;;;;19.30;11.70;;;9.00;53.80;;;1.11;72.23;96973.28;4985863;28;20030;-56
2023/02/09 09:39:32;;;;;;;21.52;12.82;;;9.20;53.60;;;1.24;72.13;96972.72;4985610;28;20032;-53
2023/02/09 09:42:04;;;;;;;19.80;12.35;;;9.40;53.20;;;1.38;72.62;96976.44;4988157;28;20030;-57
2023/02/09 09:44:44;;;;;;;18.63;11.38;;;9.70;52.80;;;1.43;69.98;96976.72;4986664;28;20029;-54
2023/02/09 09:47:25;;;;;;;18.85;11.27;;;9.90;52.50;;;1.73;69.57;96976.88;4987969;28;20034;-58
2023/02/09 09:49:51;;;;;;;17.55;10.20;;;10.10;52.20;;;1.91;66.16;96977.38;5001103;28;20068;-57
2023/02/09 09:52:40;;;;;;;23.05;11.23;;;10.30;52.00;;;2.20;65.40;96979.28;4994585;28;20060;-57
2023/02/09 09:55:21;;;;;;;17.35;11.38;;;10.50;51.40;;;2.53;66.35;96974.53;4994073;28;20033;-58
2023/02/09 09:57:55;;;;;;;18.73;11.63;;;10.70;51.10;;;2.80;64.93;96976.75;4984342;28;20090;-56
2023/02/09 10:00:38;;;;;;;17.92;11.50;;;11.00;51.00;;;2.91;63.80;96977.09;4997748;28;20080;-58
2023/02/09 10:03:16;;;;;;;22.45;11.50;;;11.30;50.60;;;3.03;62.30;96981.91;4982983;28;20022;-57
2023/02/09 10:05:52;;;;;;;17.05;11.13;;;11.50;50.10;;;3.17;60.39;96986.34;4991350;28;20029;-55
2023/02/09 10:08:57;;;;;;;17.67;11.38;;;11.70;49.70;;;3.34;61.63;96976.41;4985112;28;20508;-54
2023/02/09 10:11:50;;;;;;;16.95;10.98;;;12.00;48.90;;;3.60;59.21;96983.78;4992926;28;20186;-54
2023/02/09 10:14:22;;;;;;;19.25;11.32;;;12.20;48.60;;;3.91;59.09;96991.41;4990923;28;20385;-54
2023/02/09 10:16:51;;;;;;;16.83;11.38;;;12.40;48.50;;;3.91;59.01;96989.59;4991469;28;20116;-59
2023/02/09 10:19:29;;;;;;;17.33;11.60;;;12.60;48.20;;;4.14;57.88;96983.34;4990927;28;20113;-57
2023/02/09 10:21:56;;;;;;;18.45;12.35;;;12.80;47.60;;;4.32;58.36;96988.13;5000849;28;20025;-57
2023/02/09 10:24:33;;;;;;;22.10;13.38;;;13.00;47.40;;;4.41;57.89;96987.00;4980685;28;20036;-57
2023/02/09 10:27:29;;;;;;;20.48;13.48;;;13.20;46.70;;;4.46;56.76;96989.06;5004766;28;20032;-58
2023/02/09 10:30:19;;;;;;;19.75;12.77;;;13.30;46.20;;;4.74;56.65;96992.53;4998420;28;20025;-55
2023/02/09 10:32:45;;;;;;;18.10;12.57;;;13.50;46.00;;;4.87;55.59;96984.69;5000223;28;20040;-57
2023/02/09 10:35:50;;;;;;;20.05;13.65;;;13.60;46.00;;;5.01;57.08;96987.38;4995966;28;20476;-56
2023/02/09 10:38:22;;;;;;;22.13;13.77;;;13.80;45.50;;;5.21;55.79;96990.16;5005210;28;20033;-59
2023/02/09 10:40:50;;;;;;;22.20;14.48;;;14.00;45.40;;;4.96;54.62;96982.69;4980054;28;20030;-57
2023/02/09 10:43:33;;;;;;;22.20;14.63;;;14.10;45.20;;;5.19;55.12;96984.22;5005382;28;20033;-59